Charles W. Baker (2M8)
Millington, TN
Field Elevation: 247
Lat: 35°16.74N  Long: 89°55.89W
CTAF/Unicom Freq: 122.8000
   
     For Weather-by-Phone, call 901-873-0903
Weather Advisories
2019-01-23   00:57 Z
Altimeter 30.05" Hg
Wind 160° @ 13 KT
Gusts 21 KT
Visibility 10 SM
Ceiling CLR
Temperature 11° C (52° F)
Dewpoint 11° C (52° F)
Relative Humidity 97%
Density Altitude --
Condensation Altitude --
Wind and Runways
Indicated Runway = 18
Headwind = 12 kt
Crosswind = 4 kt
History
 
 
 
More Info
NOAA Forecast
 
 
About Us
Belfort Instrument
 
 
FAA Disclaimer: The data displayed is for advisory purposes only and is not to be used for flight planning or operations. For official data, please call 901-873-0903 to hear the current automated AWOS voice message.
  METAR 2M8 230057Z AUTO 16013G21KT 10 SM CLR 11/11 A3005